createdAt,value
2023-03-26T00:00:54.063Z,51.17
2023-03-26T00:03:58.459Z,51.14
2023-03-26T00:07:00.502Z,51.16
2023-03-26T00:10:03.573Z,51.23
2023-03-26T00:13:06.852Z,51.23
2023-03-26T00:16:12.088Z,51.23
2023-03-26T00:19:14.165Z,51.17
2023-03-26T00:22:17.012Z,51.23
2023-03-26T00:25:20.362Z,51.29
2023-03-26T00:28:23.797Z,51.27
2023-03-26T00:31:26.061Z,51.24
2023-03-26T00:34:28.125Z,51.32
2023-03-26T00:37:30.515Z,51.25
2023-03-26T00:40:36.652Z,51.25
2023-03-26T00:43:38.684Z,51.30
2023-03-26T00:46:41.337Z,51.33
2023-03-26T00:49:46.725Z,51.30
2023-03-26T00:52:48.712Z,51.27
2023-03-26T00:55:50.728Z,51.28
2023-03-26T00:58:52.789Z,51.27
2023-03-26T01:01:55.239Z,51.29
2023-03-26T01:05:02.653Z,51.34
2023-03-26T01:08:30.699Z,51.30
2023-03-26T01:11:35.122Z,51.26
2023-03-26T01:14:38.051Z,51.28
2023-03-26T01:17:42.989Z,51.27
2023-03-26T01:20:49.690Z,51.25
2023-03-26T01:24:06.641Z,51.29
2023-03-26T01:27:27.317Z,51.33
2023-03-26T01:30:49.636Z,51.28
2023-03-26T01:34:16.843Z,51.29
2023-03-26T01:38:10.519Z,51.36
2023-03-26T01:41:20.142Z,51.31
2023-03-26T01:44:48.008Z,51.35
2023-03-26T01:47:51.074Z,51.30
2023-03-26T01:50:56.299Z,51.34
2023-03-26T01:53:59.280Z,51.30
2023-03-26T01:57:20.296Z,51.28
2023-03-26T02:00:48.667Z,51.30
2023-03-26T02:04:20.739Z,51.30
2023-03-26T02:07:34.474Z,51.41
2023-03-26T02:10:45.703Z,51.37
2023-03-26T02:13:47.904Z,51.30
2023-03-26T02:16:51.461Z,51.34
2023-03-26T02:19:54.078Z,51.34
2023-03-26T02:22:57.246Z,51.46
2023-03-26T02:25:59.270Z,51.37
2023-03-26T02:29:01.870Z,51.38
2023-03-26T02:32:08.304Z,51.38
2023-03-26T02:35:11.912Z,51.44
2023-03-26T02:38:14.501Z,51.39
2023-03-26T02:41:17.218Z,51.33
2023-03-26T02:44:19.322Z,51.33
2023-03-26T02:47:21.440Z,51.34
2023-03-26T02:50:24.056Z,51.36
2023-03-26T02:53:29.802Z,51.41
2023-03-26T02:56:32.024Z,51.36
2023-03-26T02:59:34.053Z,51.36
2023-03-26T03:02:38.370Z,51.36
2023-03-26T03:05:43.236Z,51.41
2023-03-26T03:08:48.835Z,51.40
2023-03-26T03:11:52.583Z,51.43
2023-03-26T03:14:54.597Z,51.37
2023-03-26T03:17:56.886Z,51.51
2023-03-26T03:20:58.928Z,51.40
2023-03-26T03:24:01.019Z,51.43
2023-03-26T03:27:03.176Z,51.37
2023-03-26T03:30:06.459Z,51.40
2023-03-26T03:33:08.497Z,51.43
2023-03-26T03:36:20.804Z,51.43
2023-03-26T03:39:23.908Z,51.43
2023-03-26T03:42:27.390Z,51.45
2023-03-26T03:45:29.589Z,51.38
2023-03-26T03:48:31.642Z,51.55
2023-03-26T03:51:35.201Z,51.40
2023-03-26T03:54:37.304Z,51.51
2023-03-26T03:57:40.354Z,51.40
2023-03-26T04:00:44.792Z,51.43
2023-03-26T04:03:47.123Z,51.46
2023-03-26T04:06:49.261Z,51.46
2023-03-26T04:09:51.324Z,51.51
2023-03-26T04:12:53.412Z,51.52
2023-03-26T04:15:56.250Z,51.50
2023-03-26T04:18:58.533Z,51.51
2023-03-26T04:22:02.810Z,51.46
2023-03-26T04:25:05.191Z,51.48
2023-03-26T04:28:08.485Z,51.50
2023-03-26T04:31:15.698Z,51.56
2023-03-26T04:34:24.263Z,51.47
2023-03-26T04:37:52.850Z,51.54
2023-03-26T04:40:54.886Z,51.48
2023-03-26T04:43:56.947Z,51.44
2023-03-26T04:46:59.022Z,51.46
2023-03-26T04:50:01.142Z,51.53
2023-03-26T04:53:03.273Z,51.53
2023-03-26T04:56:37.392Z,51.44
2023-03-26T04:59:41.258Z,51.48
2023-03-26T05:02:43.841Z,51.53
2023-03-26T05:05:46.166Z,51.40
2023-03-26T05:08:48.304Z,51.38
2023-03-26T05:11:50.752Z,51.36
2023-03-26T05:14:52.778Z,51.40
2023-03-26T05:17:55.517Z,51.41
2023-03-26T05:20:58.018Z,51.37
2023-03-26T05:24:00.447Z,51.38
2023-03-26T05:27:02.498Z,51.34
2023-03-26T05:30:06.181Z,51.44
2023-03-26T05:33:08.282Z,51.30
2023-03-26T05:36:15.534Z,51.31
2023-03-26T05:39:17.683Z,51.37
2023-03-26T05:42:19.798Z,51.34
2023-03-26T05:45:22.319Z,51.31
2023-03-26T05:48:24.718Z,51.30
2023-03-26T05:51:26.738Z,51.39
2023-03-26T05:54:28.976Z,51.03
2023-03-26T05:57:31.639Z,50.41
2023-03-26T06:00:33.710Z,49.63
2023-03-26T06:03:39.680Z,49.40
2023-03-26T06:06:42.622Z,49.43
2023-03-26T06:09:45.177Z,49.38
2023-03-26T06:12:47.209Z,49.28
2023-03-26T06:15:49.366Z,49.53
2023-03-26T06:18:56.888Z,49.78
2023-03-26T06:21:59.696Z,49.84
2023-03-26T06:25:01.732Z,50.00
2023-03-26T06:28:04.048Z,50.01
2023-03-26T06:31:06.954Z,50.04
2023-03-26T06:34:09.039Z,49.92
2023-03-26T06:37:11.146Z,49.81
2023-03-26T06:40:14.769Z,49.73
2023-03-26T06:43:18.092Z,49.67
2023-03-26T06:46:21.325Z,49.62
2023-03-26T06:49:23.683Z,49.43
2023-03-26T06:52:26.070Z,49.14
2023-03-26T06:55:28.149Z,48.91
2023-03-26T06:58:30.512Z,48.61
2023-03-26T07:01:32.565Z,48.48
2023-03-26T07:04:34.690Z,48.50
2023-03-26T07:07:45.869Z,48.53
2023-03-26T07:10:48.845Z,48.56
2023-03-26T07:13:51.491Z,48.54
2023-03-26T07:16:53.792Z,48.57
2023-03-26T07:19:56.016Z,48.41
2023-03-26T07:22:58.298Z,48.38
2023-03-26T07:26:02.630Z,48.34
2023-03-26T07:29:26.535Z,48.28
2023-03-26T07:32:48.461Z,48.19
2023-03-26T07:35:56.672Z,47.95
2023-03-26T07:39:20.680Z,47.74
2023-03-26T07:42:43.310Z,47.81
2023-03-26T07:45:45.997Z,47.70
2023-03-26T07:48:48.505Z,47.17
2023-03-26T07:51:50.795Z,46.96
2023-03-26T07:54:53.318Z,46.79
2023-03-26T07:58:19.739Z,47.03
2023-03-26T08:01:36.759Z,47.31
2023-03-26T08:05:00.619Z,47.52
2023-03-26T08:08:36.302Z,48.16
2023-03-26T08:11:49.503Z,48.27
2023-03-26T08:15:16.778Z,48.26
2023-03-26T08:18:46.782Z,48.67
2023-03-26T08:21:54.101Z,49.05
2023-03-26T08:25:16.634Z,49.18
2023-03-26T08:28:37.790Z,49.34
2023-03-26T08:31:41.265Z,49.61
2023-03-26T08:34:43.434Z,49.69
2023-03-26T08:37:45.492Z,49.79
2023-03-26T08:40:59.380Z,49.88
2023-03-26T08:44:47.534Z,48.80
2023-03-26T08:48:01.941Z,48.78
2023-03-26T08:51:13.512Z,49.38
2023-03-26T08:54:27.649Z,49.66
2023-03-26T08:57:52.088Z,49.73
2023-03-26T09:01:28.558Z,50.13
2023-03-26T09:04:39.730Z,49.73
2023-03-26T09:08:06.548Z,50.30
2023-03-26T09:11:11.293Z,49.98
2023-03-26T09:14:44.271Z,49.51
2023-03-26T09:17:58.734Z,50.37
2023-03-26T09:21:27.602Z,50.00
2023-03-26T09:24:51.578Z,49.27
2023-03-26T09:28:44.870Z,48.02
2023-03-26T09:32:09.326Z,48.66
2023-03-26T09:35:30.951Z,47.92
2023-03-26T09:38:38.944Z,47.79
2023-03-26T09:41:46.684Z,48.12
2023-03-26T09:45:08.876Z,48.34
2023-03-26T09:48:26.346Z,49.08
2023-03-26T09:52:00.262Z,48.15
2023-03-26T09:55:24.012Z,47.96
2023-03-26T09:58:44.944Z,47.49
2023-03-26T10:02:08.877Z,47.22
2023-03-26T10:05:42.379Z,46.93
2023-03-26T10:09:04.831Z,47.01
2023-03-26T10:12:22.391Z,46.73
2023-03-26T10:15:43.598Z,46.75
2023-03-26T10:18:57.802Z,46.68
2023-03-26T10:22:30.508Z,46.60
2023-03-26T10:25:42.309Z,46.54
2023-03-26T10:29:09.345Z,46.47
2023-03-26T10:32:30.650Z,46.41
2023-03-26T10:35:45.273Z,46.47
2023-03-26T10:39:36.826Z,46.76
2023-03-26T10:43:16.639Z,46.60
2023-03-26T10:46:28.157Z,46.34
2023-03-26T10:49:54.273Z,46.09
2023-03-26T10:53:06.943Z,45.86
2023-03-26T10:56:28.299Z,45.58
2023-03-26T10:59:30.626Z,45.81
2023-03-26T11:02:44.525Z,45.74
2023-03-26T11:06:05.081Z,45.48
2023-03-26T11:09:41.115Z,45.24
2023-03-26T11:12:54.904Z,45.19
2023-03-26T11:16:04.339Z,45.22
2023-03-26T11:19:23.494Z,45.19
2023-03-26T11:23:03.865Z,45.22
2023-03-26T11:26:31.819Z,45.35
2023-03-26T11:29:56.591Z,44.93
2023-03-26T11:33:03.393Z,44.71
2023-03-26T11:36:12.350Z,44.42
2023-03-26T11:39:27.595Z,44.56
2023-03-26T11:42:30.447Z,44.30
2023-03-26T11:45:37.970Z,44.99
2023-03-26T11:48:47.199Z,45.51
2023-03-26T11:51:49.631Z,45.66
2023-03-26T11:54:51.681Z,46.00
2023-03-26T11:57:58.043Z,46.03
2023-03-26T12:01:04.649Z,46.21
2023-03-26T12:04:13.522Z,46.22
2023-03-26T12:07:17.140Z,46.26
2023-03-26T12:10:25.989Z,46.43
2023-03-26T12:13:39.773Z,46.86
2023-03-26T12:16:58.426Z,47.11
2023-03-26T12:20:02.010Z,47.38
2023-03-26T12:23:06.736Z,47.44
2023-03-26T12:26:16.178Z,47.60
2023-03-26T12:29:19.312Z,47.76
2023-03-26T12:32:22.563Z,47.76
2023-03-26T12:35:34.213Z,47.79
2023-03-26T12:38:39.059Z,47.83
2023-03-26T12:44:50.514Z,47.88
2023-03-26T12:45:06.881Z,47.92
2023-03-26T12:48:14.230Z,48.02
2023-03-26T12:51:30.431Z,48.03
2023-03-26T12:54:48.881Z,48.03
2023-03-26T12:58:13.842Z,48.05
2023-03-26T13:02:06.133Z,48.08
2023-03-26T13:05:31.981Z,48.11
2023-03-26T13:08:49.692Z,48.21
2023-03-26T13:11:59.335Z,48.32
2023-03-26T13:15:07.834Z,48.51
2023-03-26T13:18:43.574Z,48.56
2023-03-26T13:22:03.410Z,48.68
2023-03-26T13:25:26.168Z,48.76
2023-03-26T13:28:47.272Z,48.85
2023-03-26T13:32:05.172Z,48.87
2023-03-26T13:35:31.770Z,49.06
2023-03-26T13:38:59.101Z,49.13
2023-03-26T13:42:11.704Z,49.21
2023-03-26T13:45:30.040Z,49.27
2023-03-26T13:48:57.572Z,49.34
2023-03-26T13:52:14.633Z,49.25
2023-03-26T13:55:29.324Z,49.28
2023-03-26T13:58:47.289Z,49.27
2023-03-26T14:02:17.864Z,49.22
2023-03-26T14:05:25.809Z,49.27
2023-03-26T14:08:42.075Z,49.30
2023-03-26T14:12:00.787Z,49.27
2023-03-26T14:15:26.096Z,49.24
2023-03-26T14:18:49.219Z,49.28
2023-03-26T14:22:31.129Z,49.51
2023-03-26T14:25:48.214Z,49.56
2023-03-26T14:29:27.701Z,49.50
2023-03-26T14:33:03.068Z,49.59
2023-03-26T14:36:17.178Z,49.57
2023-03-26T14:39:44.175Z,49.69
2023-03-26T14:43:11.444Z,49.81
2023-03-26T14:46:42.840Z,49.92
2023-03-26T14:50:20.405Z,49.99
2023-03-26T14:53:30.903Z,50.07
2023-03-26T14:57:06.561Z,50.13
2023-03-26T15:00:27.372Z,50.18
2023-03-26T15:03:38.713Z,50.01
2023-03-26T15:07:21.276Z,50.19
2023-03-26T15:10:42.704Z,50.06
2023-03-26T15:14:11.246Z,50.14
2023-03-26T15:17:44.879Z,49.89
2023-03-26T15:21:15.978Z,47.02
2023-03-26T15:24:27.350Z,45.83
2023-03-26T15:28:00.188Z,45.06
2023-03-26T15:31:21.726Z,45.52
2023-03-26T15:34:56.651Z,47.03
2023-03-26T15:38:20.964Z,47.81
2023-03-26T15:41:34.974Z,49.41
2023-03-26T15:44:50.926Z,52.30
2023-03-26T15:48:13.214Z,53.49
2023-03-26T15:51:46.354Z,53.07
2023-03-26T15:55:17.006Z,53.89
2023-03-26T15:58:26.109Z,53.52
2023-03-26T16:01:45.725Z,53.04
2023-03-26T16:04:54.482Z,52.68
2023-03-26T16:08:21.046Z,52.02
2023-03-26T16:11:44.909Z,52.11
2023-03-26T16:15:04.089Z,51.72
2023-03-26T16:18:15.528Z,51.30
2023-03-26T16:21:36.266Z,50.24
2023-03-26T16:24:46.750Z,50.04
2023-03-26T16:28:07.742Z,49.13
2023-03-26T16:31:37.245Z,48.69
2023-03-26T16:35:13.656Z,49.30
2023-03-26T16:38:18.348Z,49.11
2023-03-26T16:41:26.235Z,49.03
2023-03-26T16:44:56.342Z,49.27
2023-03-26T16:48:17.902Z,49.69
2023-03-26T16:51:38.870Z,49.20
2023-03-26T16:55:07.193Z,49.09
2023-03-26T16:58:14.942Z,49.12
2023-03-26T17:01:32.433Z,49.02
2023-03-26T17:04:35.390Z,48.93
2023-03-26T17:07:51.588Z,48.87
2023-03-26T17:11:00.425Z,48.82
2023-03-26T17:14:08.140Z,48.98
2023-03-26T17:17:24.481Z,48.88
2023-03-26T17:20:36.800Z,48.85
2023-03-26T17:24:33.337Z,49.08
2023-03-26T17:28:14.357Z,49.03
2023-03-26T17:31:32.635Z,48.95
2023-03-26T17:34:52.742Z,49.02
2023-03-26T17:37:55.145Z,49.01
2023-03-26T17:40:59.340Z,48.99
2023-03-26T17:44:26.263Z,49.05
2023-03-26T17:47:34.479Z,49.05
2023-03-26T17:50:48.727Z,49.00
2023-03-26T17:53:52.950Z,48.99
2023-03-26T17:56:59.255Z,49.15
2023-03-26T18:00:02.192Z,49.05
2023-03-26T18:03:23.757Z,49.05
2023-03-26T18:06:56.117Z,49.18
2023-03-26T18:10:17.827Z,49.26
2023-03-26T18:13:38.579Z,49.41
2023-03-26T18:16:53.799Z,49.38
2023-03-26T18:20:06.375Z,49.28
2023-03-26T18:23:31.650Z,49.52
2023-03-26T18:26:46.766Z,49.51
2023-03-26T18:30:02.743Z,49.55
2023-03-26T18:33:14.694Z,49.64
2023-03-26T18:36:18.694Z,49.66
2023-03-26T18:39:20.904Z,49.71
2023-03-26T18:42:25.978Z,49.67
2023-03-26T18:45:31.531Z,49.56
2023-03-26T18:48:33.984Z,49.62
2023-03-26T18:51:46.455Z,49.69
2023-03-26T18:54:54.302Z,49.75
2023-03-26T18:57:57.463Z,49.75
2023-03-26T19:01:07.259Z,49.64
2023-03-26T19:04:13.152Z,49.66
2023-03-26T19:07:26.859Z,49.68
2023-03-26T19:10:30.033Z,49.72
2023-03-26T19:13:33.594Z,49.67
2023-03-26T19:16:37.556Z,49.66
2023-03-26T19:19:39.702Z,49.57
2023-03-26T19:22:43.455Z,49.59
2023-03-26T19:25:54.951Z,49.57
2023-03-26T19:28:58.719Z,49.30
2023-03-26T19:32:17.686Z,49.35
2023-03-26T19:35:22.280Z,49.37
2023-03-26T19:38:27.778Z,49.30
2023-03-26T19:41:37.765Z,49.33
2023-03-26T19:44:40.112Z,49.35
2023-03-26T19:47:52.182Z,49.50
2023-03-26T19:51:06.138Z,49.34
2023-03-26T19:54:16.600Z,49.33
2023-03-26T19:57:18.779Z,49.26
2023-03-26T20:00:21.886Z,49.34
2023-03-26T20:03:37.930Z,49.20
2023-03-26T20:06:43.903Z,49.31
2023-03-26T20:09:46.545Z,49.45
2023-03-26T20:12:48.826Z,49.49
2023-03-26T20:16:05.674Z,49.50
2023-03-26T20:19:08.753Z,49.47
2023-03-26T20:22:16.818Z,49.43
2023-03-26T20:25:26.080Z,49.49
2023-03-26T20:28:35.394Z,49.50
2023-03-26T20:31:45.248Z,49.53
2023-03-26T20:34:49.230Z,49.53
2023-03-26T20:37:52.481Z,49.56
2023-03-26T20:40:55.520Z,49.71
2023-03-26T20:43:57.837Z,49.61
2023-03-26T20:47:00.341Z,49.63
2023-03-26T20:50:02.637Z,49.73
2023-03-26T20:53:05.198Z,49.61
2023-03-26T20:56:17.865Z,49.70
2023-03-26T20:59:26.790Z,49.75
2023-03-26T21:02:29.289Z,49.75
2023-03-26T21:05:32.136Z,49.91
2023-03-26T21:08:34.377Z,49.89
2023-03-26T21:11:53.696Z,50.05
2023-03-26T21:14:56.991Z,50.09
2023-03-26T21:17:59.268Z,50.22
2023-03-26T21:21:20.660Z,50.22
2023-03-26T21:24:45.912Z,50.26
2023-03-26T21:28:09.486Z,50.30
2023-03-26T21:31:18.551Z,50.31
2023-03-26T21:34:22.357Z,50.26
2023-03-26T21:37:24.684Z,50.34
2023-03-26T21:40:27.944Z,50.41
2023-03-26T21:43:29.983Z,50.44
2023-03-26T21:46:32.495Z,50.48
2023-03-26T21:49:35.187Z,50.50
2023-03-26T21:52:48.288Z,50.53
2023-03-26T21:56:17.499Z,50.57
2023-03-26T21:59:32.694Z,50.56
2023-03-26T22:02:50.297Z,50.57
2023-03-26T22:06:15.284Z,50.58
2023-03-26T22:09:23.443Z,50.55
2023-03-26T22:12:28.826Z,50.59
2023-03-26T22:15:31.450Z,50.63
2023-03-26T22:18:34.143Z,50.67
2023-03-26T22:21:36.265Z,50.66
2023-03-26T22:24:38.977Z,50.65
2023-03-26T22:27:44.179Z,50.63
2023-03-26T22:30:47.300Z,50.69
2023-03-26T22:33:49.382Z,50.72
2023-03-26T22:36:52.965Z,50.72
2023-03-26T22:39:55.350Z,50.78
2023-03-26T22:42:57.571Z,50.71
2023-03-26T22:45:59.714Z,50.73
2023-03-26T22:49:01.809Z,50.79
2023-03-26T22:52:04.016Z,50.85
2023-03-26T22:55:06.700Z,50.82
2023-03-26T22:58:09.148Z,50.85
2023-03-26T23:01:18.672Z,50.92
2023-03-26T23:04:31.349Z,50.91
2023-03-26T23:07:34.115Z,50.97
2023-03-26T23:10:36.789Z,50.92
2023-03-26T23:13:39.708Z,51.04
2023-03-26T23:16:42.406Z,50.98
2023-03-26T23:19:44.643Z,50.96
2023-03-26T23:22:46.990Z,50.98
2023-03-26T23:25:49.012Z,51.01
2023-03-26T23:28:51.360Z,51.10
2023-03-26T23:31:54.627Z,51.12
2023-03-26T23:34:56.807Z,51.11
2023-03-26T23:38:02.256Z,51.09
2023-03-26T23:41:05.415Z,51.08
2023-03-26T23:44:07.521Z,51.17
2023-03-26T23:47:10.168Z,51.17
2023-03-26T23:50:12.789Z,51.03
2023-03-26T23:53:15.230Z,51.11
2023-03-26T23:56:17.471Z,51.14
2023-03-26T23:59:19.488Z,51.19
